sensor_id;sensor_type;location;lat;lon;timestamp;P1;durP1;ratioP1;P2;durP2;ratioP2
37677;SDS011;23517;50.390;8.616;2023-12-07T00:02:03;14.90;;;11.00;;
37677;SDS011;23517;50.390;8.616;2023-12-07T00:04:31;15.00;;;10.82;;
37677;SDS011;23517;50.390;8.616;2023-12-07T00:06:58;15.13;;;9.90;;
37677;SDS011;23517;50.390;8.616;2023-12-07T00:09:24;13.52;;;9.95;;
37677;SDS011;23517;50.390;8.616;2023-12-07T00:11:51;15.45;;;10.38;;
37677;SDS011;23517;50.390;8.616;2023-12-07T00:14:18;16.70;;;10.40;;
37677;SDS011;23517;50.390;8.616;2023-12-07T00:16:45;15.93;;;10.48;;
37677;SDS011;23517;50.390;8.616;2023-12-07T00:19:11;13.52;;;10.30;;
37677;SDS011;23517;50.390;8.616;2023-12-07T00:21:38;15.63;;;10.63;;
37677;SDS011;23517;50.390;8.616;2023-12-07T00:24:05;18.55;;;11.40;;
37677;SDS011;23517;50.390;8.616;2023-12-07T00:26:32;15.98;;;10.95;;
37677;SDS011;23517;50.390;8.616;2023-12-07T00:28:58;18.50;;;10.65;;
37677;SDS011;23517;50.390;8.616;2023-12-07T00:31:25;15.52;;;10.52;;
37677;SDS011;23517;50.390;8.616;2023-12-07T00:33:52;13.35;;;10.27;;
37677;SDS011;23517;50.390;8.616;2023-12-07T00:36:19;14.38;;;10.70;;
37677;SDS011;23517;50.390;8.616;2023-12-07T00:38:46;18.73;;;11.90;;
37677;SDS011;23517;50.390;8.616;2023-12-07T00:41:13;16.90;;;11.30;;
37677;SDS011;23517;50.390;8.616;2023-12-07T00:43:39;20.83;;;10.95;;
37677;SDS011;23517;50.390;8.616;2023-12-07T00:46:07;12.77;;;9.02;;
37677;SDS011;23517;50.390;8.616;2023-12-07T00:48:34;13.27;;;10.18;;
37677;SDS011;23517;50.390;8.616;2023-12-07T00:51:01;15.00;;;9.57;;
37677;SDS011;23517;50.390;8.616;2023-12-07T00:53:27;14.88;;;9.70;;
37677;SDS011;23517;50.390;8.616;2023-12-07T00:55:54;15.80;;;10.02;;
37677;SDS011;23517;50.390;8.616;2023-12-07T00:58:21;14.50;;;9.48;;
37677;SDS011;23517;50.390;8.616;2023-12-07T01:00:48;15.85;;;10.82;;
37677;SDS011;23517;50.390;8.616;2023-12-07T01:03:14;14.95;;;10.38;;
37677;SDS011;23517;50.390;8.616;2023-12-07T01:05:41;19.73;;;11.07;;
37677;SDS011;23517;50.390;8.616;2023-12-07T01:08:08;16.65;;;10.57;;
37677;SDS011;23517;50.390;8.616;2023-12-07T01:10:35;16.88;;;10.95;;
37677;SDS011;23517;50.390;8.616;2023-12-07T01:13:02;15.50;;;10.20;;
37677;SDS011;23517;50.390;8.616;2023-12-07T01:15:29;18.58;;;11.63;;
37677;SDS011;23517;50.390;8.616;2023-12-07T01:17:55;21.08;;;10.95;;
37677;SDS011;23517;50.390;8.616;2023-12-07T01:20:22;16.77;;;10.55;;
37677;SDS011;23517;50.390;8.616;2023-12-07T01:22:49;13.52;;;9.98;;
37677;SDS011;23517;50.390;8.616;2023-12-07T01:25:16;16.92;;;10.52;;
37677;SDS011;23517;50.390;8.616;2023-12-07T01:27:48;16.35;;;9.73;;
37677;SDS011;23517;50.390;8.616;2023-12-07T01:30:14;15.38;;;9.73;;
37677;SDS011;23517;50.390;8.616;2023-12-07T01:32:42;17.35;;;10.98;;
37677;SDS011;23517;50.390;8.616;2023-12-07T01:35:09;11.82;;;8.95;;
37677;SDS011;23517;50.390;8.616;2023-12-07T01:37:36;13.07;;;9.95;;
37677;SDS011;23517;50.390;8.616;2023-12-07T01:40:04;12.77;;;8.52;;
37677;SDS011;23517;50.390;8.616;2023-12-07T01:42:38;14.77;;;8.32;;
37677;SDS011;23517;50.390;8.616;2023-12-07T01:45:06;13.63;;;8.13;;
37677;SDS011;23517;50.390;8.616;2023-12-07T01:47:33;13.20;;;8.43;;
37677;SDS011;23517;50.390;8.616;2023-12-07T01:50:02;13.57;;;8.45;;
37677;SDS011;23517;50.390;8.616;2023-12-07T01:52:30;12.23;;;8.20;;
37677;SDS011;23517;50.390;8.616;2023-12-07T01:54:58;13.95;;;8.52;;
37677;SDS011;23517;50.390;8.616;2023-12-07T01:57:25;13.77;;;8.38;;
37677;SDS011;23517;50.390;8.616;2023-12-07T01:59:52;16.10;;;8.90;;
37677;SDS011;23517;50.390;8.616;2023-12-07T02:02:18;14.18;;;9.02;;
37677;SDS011;23517;50.390;8.616;2023-12-07T02:04:45;13.07;;;9.25;;
37677;SDS011;23517;50.390;8.616;2023-12-07T02:07:12;16.23;;;10.38;;
37677;SDS011;23517;50.390;8.616;2023-12-07T02:09:39;15.25;;;8.95;;
37677;SDS011;23517;50.390;8.616;2023-12-07T02:12:06;13.95;;;8.48;;
37677;SDS011;23517;50.390;8.616;2023-12-07T02:14:32;13.52;;;9.23;;
37677;SDS011;23517;50.390;8.616;2023-12-07T02:19:45;13.38;;;8.75;;
37677;SDS011;23517;50.390;8.616;2023-12-07T02:22:28;12.57;;;8.85;;
37677;SDS011;23517;50.390;8.616;2023-12-07T02:25:09;15.35;;;9.38;;
37677;SDS011;23517;50.390;8.616;2023-12-07T02:30:06;12.02;;;8.90;;
37677;SDS011;23517;50.390;8.616;2023-12-07T02:32:39;16.27;;;9.73;;
37677;SDS011;23517;50.390;8.616;2023-12-07T02:35:08;13.88;;;8.45;;
37677;SDS011;23517;50.390;8.616;2023-12-07T02:37:50;13.60;;;8.98;;
37677;SDS011;23517;50.390;8.616;2023-12-07T02:40:21;14.93;;;9.07;;
37677;SDS011;23517;50.390;8.616;2023-12-07T02:42:51;14.98;;;8.57;;
37677;SDS011;23517;50.390;8.616;2023-12-07T02:45:19;16.52;;;8.75;;
37677;SDS011;23517;50.390;8.616;2023-12-07T02:47:46;16.95;;;9.10;;
37677;SDS011;23517;50.390;8.616;2023-12-07T02:50:13;14.75;;;8.68;;
37677;SDS011;23517;50.390;8.616;2023-12-07T02:52:40;14.75;;;8.25;;
37677;SDS011;23517;50.390;8.616;2023-12-07T02:55:07;13.02;;;9.23;;
37677;SDS011;23517;50.390;8.616;2023-12-07T02:57:35;14.38;;;9.18;;
37677;SDS011;23517;50.390;8.616;2023-12-07T03:00:02;12.45;;;8.50;;
37677;SDS011;23517;50.390;8.616;2023-12-07T03:02:34;14.35;;;8.10;;
37677;SDS011;23517;50.390;8.616;2023-12-07T03:05:02;16.90;;;9.32;;
37677;SDS011;23517;50.390;8.616;2023-12-07T03:07:30;14.43;;;9.30;;
37677;SDS011;23517;50.390;8.616;2023-12-07T03:09:57;14.70;;;9.10;;
37677;SDS011;23517;50.390;8.616;2023-12-07T03:12:23;13.48;;;8.88;;
37677;SDS011;23517;50.390;8.616;2023-12-07T03:14:53;17.40;;;8.50;;
37677;SDS011;23517;50.390;8.616;2023-12-07T03:17:20;13.25;;;8.25;;
37677;SDS011;23517;50.390;8.616;2023-12-07T03:19:47;12.07;;;8.63;;
37677;SDS011;23517;50.390;8.616;2023-12-07T03:22:14;13.10;;;9.15;;
37677;SDS011;23517;50.390;8.616;2023-12-07T03:24:44;13.63;;;8.23;;
37677;SDS011;23517;50.390;8.616;2023-12-07T03:27:17;14.45;;;9.52;;
37677;SDS011;23517;50.390;8.616;2023-12-07T03:29:44;14.90;;;8.73;;
37677;SDS011;23517;50.390;8.616;2023-12-07T03:32:11;12.43;;;7.85;;
37677;SDS011;23517;50.390;8.616;2023-12-07T03:34:37;13.65;;;8.63;;
37677;SDS011;23517;50.390;8.616;2023-12-07T03:37:04;17.52;;;8.73;;
37677;SDS011;23517;50.390;8.616;2023-12-07T03:39:32;17.15;;;8.95;;
37677;SDS011;23517;50.390;8.616;2023-12-07T03:42:01;12.55;;;8.35;;
37677;SDS011;23517;50.390;8.616;2023-12-07T03:44:29;13.32;;;9.40;;
37677;SDS011;23517;50.390;8.616;2023-12-07T03:46:56;13.45;;;8.85;;
37677;SDS011;23517;50.390;8.616;2023-12-07T03:49:23;14.25;;;9.43;;
37677;SDS011;23517;50.390;8.616;2023-12-07T03:51:50;13.38;;;9.48;;
37677;SDS011;23517;50.390;8.616;2023-12-07T03:54:16;15.93;;;8.95;;
37677;SDS011;23517;50.390;8.616;2023-12-07T03:56:43;13.93;;;7.93;;
37677;SDS011;23517;50.390;8.616;2023-12-07T03:59:10;15.10;;;8.48;;
37677;SDS011;23517;50.390;8.616;2023-12-07T04:01:36;11.18;;;8.00;;
37677;SDS011;23517;50.390;8.616;2023-12-07T04:04:03;11.80;;;8.20;;
37677;SDS011;23517;50.390;8.616;2023-12-07T04:06:31;12.95;;;8.13;;
37677;SDS011;23517;50.390;8.616;2023-12-07T04:08:57;14.60;;;8.73;;
37677;SDS011;23517;50.390;8.616;2023-12-07T04:11:24;14.52;;;9.38;;
37677;SDS011;23517;50.390;8.616;2023-12-07T04:13:51;15.32;;;8.77;;
37677;SDS011;23517;50.390;8.616;2023-12-07T04:16:17;15.70;;;9.35;;
37677;SDS011;23517;50.390;8.616;2023-12-07T04:18:44;15.15;;;9.00;;
37677;SDS011;23517;50.390;8.616;2023-12-07T04:21:11;16.17;;;9.75;;
37677;SDS011;23517;50.390;8.616;2023-12-07T04:23:37;11.85;;;8.30;;
37677;SDS011;23517;50.390;8.616;2023-12-07T04:26:04;12.52;;;8.70;;
37677;SDS011;23517;50.390;8.616;2023-12-07T04:28:31;12.88;;;8.45;;
37677;SDS011;23517;50.390;8.616;2023-12-07T04:30:58;14.85;;;10.00;;
37677;SDS011;23517;50.390;8.616;2023-12-07T04:33:25;14.93;;;8.73;;
37677;SDS011;23517;50.390;8.616;2023-12-07T04:35:52;12.68;;;8.90;;
37677;SDS011;23517;50.390;8.616;2023-12-07T04:38:18;14.48;;;10.02;;
37677;SDS011;23517;50.390;8.616;2023-12-07T04:40:45;12.57;;;9.20;;
37677;SDS011;23517;50.390;8.616;2023-12-07T04:43:12;14.45;;;9.57;;
37677;SDS011;23517;50.390;8.616;2023-12-07T04:45:39;13.55;;;9.43;;
37677;SDS011;23517;50.390;8.616;2023-12-07T04:48:06;12.30;;;8.50;;
37677;SDS011;23517;50.390;8.616;2023-12-07T04:50:33;12.40;;;9.50;;
37677;SDS011;23517;50.390;8.616;2023-12-07T04:52:59;13.20;;;9.68;;
37677;SDS011;23517;50.390;8.616;2023-12-07T04:55:26;15.50;;;8.90;;
37677;SDS011;23517;50.390;8.616;2023-12-07T04:57:53;13.20;;;9.57;;
37677;SDS011;23517;50.390;8.616;2023-12-07T05:00:20;16.83;;;8.88;;
37677;SDS011;23517;50.390;8.616;2023-12-07T05:02:48;14.38;;;9.20;;
37677;SDS011;23517;50.390;8.616;2023-12-07T05:05:15;13.63;;;9.38;;
37677;SDS011;23517;50.390;8.616;2023-12-07T05:07:42;18.17;;;10.30;;
37677;SDS011;23517;50.390;8.616;2023-12-07T05:10:08;17.23;;;9.43;;
37677;SDS011;23517;50.390;8.616;2023-12-07T05:12:36;13.05;;;9.63;;
37677;SDS011;23517;50.390;8.616;2023-12-07T05:15:03;15.68;;;9.18;;
37677;SDS011;23517;50.390;8.616;2023-12-07T05:17:31;19.58;;;11.27;;
37677;SDS011;23517;50.390;8.616;2023-12-07T05:19:59;16.38;;;9.40;;
37677;SDS011;23517;50.390;8.616;2023-12-07T05:22:25;14.27;;;9.60;;
37677;SDS011;23517;50.390;8.616;2023-12-07T05:24:52;13.73;;;8.95;;
37677;SDS011;23517;50.390;8.616;2023-12-07T05:27:19;11.18;;;8.13;;
37677;SDS011;23517;50.390;8.616;2023-12-07T05:29:46;15.02;;;8.63;;
37677;SDS011;23517;50.390;8.616;2023-12-07T05:32:13;14.45;;;9.23;;
37677;SDS011;23517;50.390;8.616;2023-12-07T05:34:39;15.20;;;8.85;;
37677;SDS011;23517;50.390;8.616;2023-12-07T05:37:07;13.43;;;8.15;;
37677;SDS011;23517;50.390;8.616;2023-12-07T05:39:34;14.23;;;7.72;;
37677;SDS011;23517;50.390;8.616;2023-12-07T05:42:00;10.93;;;7.50;;
37677;SDS011;23517;50.390;8.616;2023-12-07T05:44:28;13.25;;;8.23;;
37677;SDS011;23517;50.390;8.616;2023-12-07T05:46:56;11.23;;;7.97;;
37677;SDS011;23517;50.390;8.616;2023-12-07T05:49:23;13.48;;;8.00;;
37677;SDS011;23517;50.390;8.616;2023-12-07T05:51:50;12.98;;;7.88;;
37677;SDS011;23517;50.390;8.616;2023-12-07T05:54:18;16.88;;;8.60;;
37677;SDS011;23517;50.390;8.616;2023-12-07T05:56:48;12.43;;;8.15;;
37677;SDS011;23517;50.390;8.616;2023-12-07T05:59:15;13.02;;;7.85;;
37677;SDS011;23517;50.390;8.616;2023-12-07T06:01:41;15.18;;;8.77;;
37677;SDS011;23517;50.390;8.616;2023-12-07T06:04:09;12.90;;;8.30;;
37677;SDS011;23517;50.390;8.616;2023-12-07T06:06:36;14.02;;;7.93;;
37677;SDS011;23517;50.390;8.616;2023-12-07T06:09:03;11.18;;;7.63;;
37677;SDS011;23517;50.390;8.616;2023-12-07T06:11:32;11.65;;;7.50;;
37677;SDS011;23517;50.390;8.616;2023-12-07T06:13:59;15.25;;;8.18;;
37677;SDS011;23517;50.390;8.616;2023-12-07T06:16:27;11.07;;;8.45;;
37677;SDS011;23517;50.390;8.616;2023-12-07T06:18:54;10.98;;;7.68;;
37677;SDS011;23517;50.390;8.616;2023-12-07T06:21:20;11.77;;;8.32;;
37677;SDS011;23517;50.390;8.616;2023-12-07T06:23:47;11.90;;;7.97;;
37677;SDS011;23517;50.390;8.616;2023-12-07T06:26:16;11.80;;;7.70;;
37677;SDS011;23517;50.390;8.616;2023-12-07T06:28:43;10.82;;;6.68;;
37677;SDS011;23517;50.390;8.616;2023-12-07T06:31:11;15.45;;;7.55;;
37677;SDS011;23517;50.390;8.616;2023-12-07T06:33:38;11.63;;;7.68;;
37677;SDS011;23517;50.390;8.616;2023-12-07T06:36:06;13.80;;;7.68;;
37677;SDS011;23517;50.390;8.616;2023-12-07T06:38:33;16.80;;;10.40;;
37677;SDS011;23517;50.390;8.616;2023-12-07T06:41:00;15.57;;;10.80;;
37677;SDS011;23517;50.390;8.616;2023-12-07T06:43:27;16.45;;;9.18;;
37677;SDS011;23517;50.390;8.616;2023-12-07T06:45:55;12.25;;;7.82;;
37677;SDS011;23517;50.390;8.616;2023-12-07T06:48:22;11.32;;;6.93;;
37677;SDS011;23517;50.390;8.616;2023-12-07T06:50:49;12.02;;;7.53;;
37677;SDS011;23517;50.390;8.616;2023-12-07T06:53:15;10.57;;;8.10;;
37677;SDS011;23517;50.390;8.616;2023-12-07T06:55:44;10.02;;;7.35;;
37677;SDS011;23517;50.390;8.616;2023-12-07T06:58:11;12.50;;;7.65;;
37677;SDS011;23517;50.390;8.616;2023-12-07T07:00:38;15.73;;;7.78;;
37677;SDS011;23517;50.390;8.616;2023-12-07T07:03:05;10.48;;;6.93;;
37677;SDS011;23517;50.390;8.616;2023-12-07T07:05:32;14.77;;;7.80;;
37677;SDS011;23517;50.390;8.616;2023-12-07T07:07:59;14.48;;;7.70;;
37677;SDS011;23517;50.390;8.616;2023-12-07T07:10:26;9.50;;;6.95;;
37677;SDS011;23517;50.390;8.616;2023-12-07T07:12:53;12.57;;;6.43;;
37677;SDS011;23517;50.390;8.616;2023-12-07T07:15:19;12.88;;;7.65;;
37677;SDS011;23517;50.390;8.616;2023-12-07T07:17:46;11.88;;;7.43;;
37677;SDS011;23517;50.390;8.616;2023-12-07T07:20:13;10.48;;;7.38;;
37677;SDS011;23517;50.390;8.616;2023-12-07T07:22:39;11.85;;;8.55;;
37677;SDS011;23517;50.390;8.616;2023-12-07T07:25:07;12.63;;;8.60;;
37677;SDS011;23517;50.390;8.616;2023-12-07T07:27:34;13.65;;;6.72;;
37677;SDS011;23517;50.390;8.616;2023-12-07T07:30:01;11.55;;;7.30;;
37677;SDS011;23517;50.390;8.616;2023-12-07T07:32:30;9.88;;;6.68;;
37677;SDS011;23517;50.390;8.616;2023-12-07T07:34:57;13.15;;;9.02;;
37677;SDS011;23517;50.390;8.616;2023-12-07T07:37:24;12.95;;;8.45;;
37677;SDS011;23517;50.390;8.616;2023-12-07T07:39:51;11.85;;;8.10;;
37677;SDS011;23517;50.390;8.616;2023-12-07T07:42:18;15.55;;;7.53;;
37677;SDS011;23517;50.390;8.616;2023-12-07T07:44:44;17.85;;;6.93;;
37677;SDS011;23517;50.390;8.616;2023-12-07T07:47:11;15.07;;;7.65;;
37677;SDS011;23517;50.390;8.616;2023-12-07T07:49:38;12.32;;;7.40;;
37677;SDS011;23517;50.390;8.616;2023-12-07T07:52:05;11.10;;;6.68;;
37677;SDS011;23517;50.390;8.616;2023-12-07T07:54:32;12.23;;;7.88;;
37677;SDS011;23517;50.390;8.616;2023-12-07T07:56:58;10.02;;;7.30;;
37677;SDS011;23517;50.390;8.616;2023-12-07T07:59:25;12.38;;;7.80;;
37677;SDS011;23517;50.390;8.616;2023-12-07T08:01:52;14.27;;;7.18;;
37677;SDS011;23517;50.390;8.616;2023-12-07T08:04:18;17.63;;;10.50;;
37677;SDS011;23517;50.390;8.616;2023-12-07T08:06:45;18.58;;;8.98;;
37677;SDS011;23517;50.390;8.616;2023-12-07T08:09:12;15.73;;;10.00;;
37677;SDS011;23517;50.390;8.616;2023-12-07T08:11:38;16.52;;;10.45;;
37677;SDS011;23517;50.390;8.616;2023-12-07T08:14:06;14.98;;;9.75;;
37677;SDS011;23517;50.390;8.616;2023-12-07T08:16:33;14.20;;;9.23;;
37677;SDS011;23517;50.390;8.616;2023-12-07T08:19:00;14.13;;;9.10;;
37677;SDS011;23517;50.390;8.616;2023-12-07T08:21:27;15.48;;;10.43;;
37677;SDS011;23517;50.390;8.616;2023-12-07T08:23:56;19.60;;;13.23;;
37677;SDS011;23517;50.390;8.616;2023-12-07T08:26:23;22.58;;;12.98;;
37677;SDS011;23517;50.390;8.616;2023-12-07T08:28:50;20.67;;;13.23;;
37677;SDS011;23517;50.390;8.616;2023-12-07T08:31:20;63.75;;;14.80;;
37677;SDS011;23517;50.390;8.616;2023-12-07T08:33:50;121.95;;;16.30;;
37677;SDS011;23517;50.390;8.616;2023-12-07T08:36:42;103.03;;;16.63;;
37677;SDS011;23517;50.390;8.616;2023-12-07T08:39:09;105.63;;;16.63;;
37677;SDS011;23517;50.390;8.616;2023-12-07T08:41:36;89.78;;;14.75;;
37677;SDS011;23517;50.390;8.616;2023-12-07T08:44:03;109.50;;;18.73;;
37677;SDS011;23517;50.390;8.616;2023-12-07T08:46:31;101.63;;;16.65;;
37677;SDS011;23517;50.390;8.616;2023-12-07T08:48:58;24.80;;;14.30;;
37677;SDS011;23517;50.390;8.616;2023-12-07T08:51:25;144.38;;;17.05;;
37677;SDS011;23517;50.390;8.616;2023-12-07T08:53:52;44.10;;;14.52;;
37677;SDS011;23517;50.390;8.616;2023-12-07T08:56:21;41.20;;;16.17;;
37677;SDS011;23517;50.390;8.616;2023-12-07T08:58:48;49.30;;;14.50;;
37677;SDS011;23517;50.390;8.616;2023-12-07T09:01:14;142.43;;;14.95;;
37677;SDS011;23517;50.390;8.616;2023-12-07T09:03:55;78.63;;;16.52;;
37677;SDS011;23517;50.390;8.616;2023-12-07T09:06:22;48.50;;;15.60;;
37677;SDS011;23517;50.390;8.616;2023-12-07T09:08:49;44.95;;;13.75;;
37677;SDS011;23517;50.390;8.616;2023-12-07T09:11:15;157.45;;;13.48;;
37677;SDS011;23517;50.390;8.616;2023-12-07T09:13:42;132.57;;;12.98;;
37677;SDS011;23517;50.390;8.616;2023-12-07T09:16:09;35.63;;;11.80;;
37677;SDS011;23517;50.390;8.616;2023-12-07T09:18:35;18.15;;;12.40;;
37677;SDS011;23517;50.390;8.616;2023-12-07T09:21:02;36.17;;;12.10;;
37677;SDS011;23517;50.390;8.616;2023-12-07T09:23:31;166.40;;;14.52;;
37677;SDS011;23517;50.390;8.616;2023-12-07T09:25:57;27.73;;;11.15;;
37677;SDS011;23517;50.390;8.616;2023-12-07T09:28:24;94.90;;;13.23;;
37677;SDS011;23517;50.390;8.616;2023-12-07T09:30:51;83.22;;;14.35;;
37677;SDS011;23517;50.390;8.616;2023-12-07T09:33:18;226.40;;;14.65;;
37677;SDS011;23517;50.390;8.616;2023-12-07T09:35:47;97.35;;;11.02;;
37677;SDS011;23517;50.390;8.616;2023-12-07T09:38:15;23.25;;;13.18;;
37677;SDS011;23517;50.390;8.616;2023-12-07T09:40:42;117.93;;;17.75;;
37677;SDS011;23517;50.390;8.616;2023-12-07T09:43:11;233.30;;;13.70;;
37677;SDS011;23517;50.390;8.616;2023-12-07T09:45:38;70.57;;;12.20;;
37677;SDS011;23517;50.390;8.616;2023-12-07T09:48:05;45.42;;;12.40;;
37677;SDS011;23517;50.390;8.616;2023-12-07T09:50:34;54.47;;;12.80;;
37677;SDS011;23517;50.390;8.616;2023-12-07T09:53:02;49.72;;;11.48;;
37677;SDS011;23517;50.390;8.616;2023-12-07T09:55:34;60.80;;;14.25;;
37677;SDS011;23517;50.390;8.616;2023-12-07T09:58:03;48.60;;;10.82;;
37677;SDS011;23517;50.390;8.616;2023-12-07T10:00:34;67.43;;;14.05;;
37677;SDS011;23517;50.390;8.616;2023-12-07T10:03:01;49.45;;;14.10;;
37677;SDS011;23517;50.390;8.616;2023-12-07T10:05:28;58.60;;;16.88;;
37677;SDS011;23517;50.390;8.616;2023-12-07T10:07:55;167.15;;;15.80;;
37677;SDS011;23517;50.390;8.616;2023-12-07T10:10:22;24.52;;;11.07;;
37677;SDS011;23517;50.390;8.616;2023-12-07T10:12:54;135.35;;;20.92;;
37677;SDS011;23517;50.390;8.616;2023-12-07T10:15:24;159.15;;;15.13;;
37677;SDS011;23517;50.390;8.616;2023-12-07T10:20:21;112.25;;;30.48;;
37677;SDS011;23517;50.390;8.616;2023-12-07T10:25:36;75.70;;;16.05;;
37677;SDS011;23517;50.390;8.616;2023-12-07T10:28:05;117.57;;;18.63;;
37677;SDS011;23517;50.390;8.616;2023-12-07T10:30:34;27.98;;;16.13;;
37677;SDS011;23517;50.390;8.616;2023-12-07T10:33:06;27.88;;;15.23;;
37677;SDS011;23517;50.390;8.616;2023-12-07T10:35:40;22.42;;;13.80;;
37677;SDS011;23517;50.390;8.616;2023-12-07T10:38:09;34.22;;;13.38;;
37677;SDS011;23517;50.390;8.616;2023-12-07T10:40:36;33.90;;;13.80;;
37677;SDS011;23517;50.390;8.616;2023-12-07T10:43:05;27.50;;;14.68;;
37677;SDS011;23517;50.390;8.616;2023-12-07T10:45:35;32.53;;;13.00;;
37677;SDS011;23517;50.390;8.616;2023-12-07T10:48:06;22.85;;;14.25;;
37677;SDS011;23517;50.390;8.616;2023-12-07T10:50:36;32.78;;;16.33;;
37677;SDS011;23517;50.390;8.616;2023-12-07T10:53:12;26.27;;;15.38;;
37677;SDS011;23517;50.390;8.616;2023-12-07T10:55:51;28.63;;;16.30;;
37677;SDS011;23517;50.390;8.616;2023-12-07T10:58:22;40.95;;;22.83;;
37677;SDS011;23517;50.390;8.616;2023-12-07T11:00:52;30.73;;;17.75;;
37677;SDS011;23517;50.390;8.616;2023-12-07T11:03:20;37.42;;;20.02;;
37677;SDS011;23517;50.390;8.616;2023-12-07T11:05:48;30.23;;;17.58;;
37677;SDS011;23517;50.390;8.616;2023-12-07T11:13:52;29.25;;;15.30;;
37677;SDS011;23517;50.390;8.616;2023-12-07T11:16:32;43.83;;;24.65;;
37677;SDS011;23517;50.390;8.616;2023-12-07T11:19:03;51.88;;;20.42;;
37677;SDS011;23517;50.390;8.616;2023-12-07T11:21:38;96.88;;;26.63;;
37677;SDS011;23517;50.390;8.616;2023-12-07T11:24:05;187.00;;;30.23;;
37677;SDS011;23517;50.390;8.616;2023-12-07T11:26:32;125.07;;;25.15;;
37677;SDS011;23517;50.390;8.616;2023-12-07T11:28:59;103.22;;;19.88;;
37677;SDS011;23517;50.390;8.616;2023-12-07T11:31:25;79.65;;;23.52;;
37677;SDS011;23517;50.390;8.616;2023-12-07T11:33:53;92.03;;;33.08;;
37677;SDS011;23517;50.390;8.616;2023-12-07T11:36:20;134.13;;;31.85;;
37677;SDS011;23517;50.390;8.616;2023-12-07T11:39:15;134.13;;;34.67;;
37677;SDS011;23517;50.390;8.616;2023-12-07T11:41:53;125.93;;;29.35;;
37677;SDS011;23517;50.390;8.616;2023-12-07T11:44:30;66.45;;;22.58;;
37677;SDS011;23517;50.390;8.616;2023-12-07T11:47:01;56.58;;;25.40;;
37677;SDS011;23517;50.390;8.616;2023-12-07T11:49:28;61.40;;;22.58;;
37677;SDS011;23517;50.390;8.616;2023-12-07T11:52:22;55.20;;;23.25;;
37677;SDS011;23517;50.390;8.616;2023-12-07T11:54:49;88.22;;;21.33;;
37677;SDS011;23517;50.390;8.616;2023-12-07T11:57:17;42.20;;;20.52;;
37677;SDS011;23517;50.390;8.616;2023-12-07T11:59:44;48.70;;;19.25;;
37677;SDS011;23517;50.390;8.616;2023-12-07T12:02:12;43.30;;;20.80;;
37677;SDS011;23517;50.390;8.616;2023-12-07T12:04:40;43.97;;;19.52;;
37677;SDS011;23517;50.390;8.616;2023-12-07T12:07:07;76.28;;;20.80;;
37677;SDS011;23517;50.390;8.616;2023-12-07T12:09:34;155.82;;;24.27;;
37677;SDS011;23517;50.390;8.616;2023-12-07T12:12:01;77.53;;;23.70;;
37677;SDS011;23517;50.390;8.616;2023-12-07T12:14:28;93.53;;;22.38;;
37677;SDS011;23517;50.390;8.616;2023-12-07T12:16:55;169.07;;;22.58;;
37677;SDS011;23517;50.390;8.616;2023-12-07T12:19:23;105.50;;;22.85;;
37677;SDS011;23517;50.390;8.616;2023-12-07T12:22:02;155.40;;;22.98;;
37677;SDS011;23517;50.390;8.616;2023-12-07T12:24:34;176.52;;;21.83;;
37677;SDS011;23517;50.390;8.616;2023-12-07T12:27:03;100.75;;;23.63;;
37677;SDS011;23517;50.390;8.616;2023-12-07T12:29:31;97.97;;;23.25;;
37677;SDS011;23517;50.390;8.616;2023-12-07T12:32:01;98.05;;;22.60;;
37677;SDS011;23517;50.390;8.616;2023-12-07T12:34:30;111.28;;;22.55;;
37677;SDS011;23517;50.390;8.616;2023-12-07T12:37:00;77.22;;;23.83;;
37677;SDS011;23517;50.390;8.616;2023-12-07T12:39:28;92.03;;;20.85;;
37677;SDS011;23517;50.390;8.616;2023-12-07T12:41:59;42.95;;;22.23;;
37677;SDS011;23517;50.390;8.616;2023-12-07T12:44:28;108.05;;;21.33;;
37677;SDS011;23517;50.390;8.616;2023-12-07T12:47:06;121.47;;;24.25;;
37677;SDS011;23517;50.390;8.616;2023-12-07T12:49:38;104.18;;;24.10;;
37677;SDS011;23517;50.390;8.616;2023-12-07T12:52:10;103.78;;;30.15;;
37677;SDS011;23517;50.390;8.616;2023-12-07T12:54:38;98.40;;;31.27;;
37677;SDS011;23517;50.390;8.616;2023-12-07T12:57:08;77.40;;;25.35;;
37677;SDS011;23517;50.390;8.616;2023-12-07T12:59:36;52.97;;;23.83;;
37677;SDS011;23517;50.390;8.616;2023-12-07T13:02:03;60.88;;;21.70;;
37677;SDS011;23517;50.390;8.616;2023-12-07T13:04:30;60.88;;;22.58;;
37677;SDS011;23517;50.390;8.616;2023-12-07T13:07:07;53.78;;;24.50;;
37677;SDS011;23517;50.390;8.616;2023-12-07T13:09:34;66.82;;;22.92;;
37677;SDS011;23517;50.390;8.616;2023-12-07T13:12:01;58.78;;;23.23;;
37677;SDS011;23517;50.390;8.616;2023-12-07T13:14:32;41.40;;;22.77;;
37677;SDS011;23517;50.390;8.616;2023-12-07T13:17:04;61.85;;;25.30;;
37677;SDS011;23517;50.390;8.616;2023-12-07T13:19:33;51.20;;;24.50;;
37677;SDS011;23517;50.390;8.616;2023-12-07T13:22:01;45.85;;;22.10;;
37677;SDS011;23517;50.390;8.616;2023-12-07T13:24:32;56.58;;;22.23;;
37677;SDS011;23517;50.390;8.616;2023-12-07T13:26:59;49.13;;;23.08;;
37677;SDS011;23517;50.390;8.616;2023-12-07T13:29:26;48.97;;;23.48;;
37677;SDS011;23517;50.390;8.616;2023-12-07T13:32:01;60.30;;;23.35;;
37677;SDS011;23517;50.390;8.616;2023-12-07T13:34:30;77.45;;;25.65;;
37677;SDS011;23517;50.390;8.616;2023-12-07T13:36:57;56.10;;;27.80;;
37677;SDS011;23517;50.390;8.616;2023-12-07T13:39:24;48.70;;;23.80;;
37677;SDS011;23517;50.390;8.616;2023-12-07T13:41:56;71.82;;;23.27;;
37677;SDS011;23517;50.390;8.616;2023-12-07T13:44:26;48.83;;;23.42;;
37677;SDS011;23517;50.390;8.616;2023-12-07T13:46:54;50.05;;;23.02;;
37677;SDS011;23517;50.390;8.616;2023-12-07T13:49:23;56.42;;;26.13;;
37677;SDS011;23517;50.390;8.616;2023-12-07T13:51:59;50.97;;;24.45;;
37677;SDS011;23517;50.390;8.616;2023-12-07T13:54:32;53.05;;;24.63;;
37677;SDS011;23517;50.390;8.616;2023-12-07T13:57:18;49.13;;;23.80;;
37677;SDS011;23517;50.390;8.616;2023-12-07T13:59:53;44.45;;;22.83;;
37677;SDS011;23517;50.390;8.616;2023-12-07T14:02:21;45.17;;;22.27;;
37677;SDS011;23517;50.390;8.616;2023-12-07T14:04:48;37.85;;;20.33;;
37677;SDS011;23517;50.390;8.616;2023-12-07T14:07:17;44.58;;;23.15;;
37677;SDS011;23517;50.390;8.616;2023-12-07T14:09:47;45.25;;;24.48;;
37677;SDS011;23517;50.390;8.616;2023-12-07T14:12:24;52.13;;;25.63;;
37677;SDS011;23517;50.390;8.616;2023-12-07T14:14:53;42.17;;;23.67;;
37677;SDS011;23517;50.390;8.616;2023-12-07T14:17:21;57.85;;;28.30;;
37677;SDS011;23517;50.390;8.616;2023-12-07T14:19:57;51.45;;;26.23;;
37677;SDS011;23517;50.390;8.616;2023-12-07T14:22:44;62.10;;;29.70;;
37677;SDS011;23517;50.390;8.616;2023-12-07T14:25:12;50.38;;;25.27;;
37677;SDS011;23517;50.390;8.616;2023-12-07T14:27:39;46.92;;;22.83;;
37677;SDS011;23517;50.390;8.616;2023-12-07T14:30:05;54.67;;;27.90;;
37677;SDS011;23517;50.390;8.616;2023-12-07T14:32:33;75.35;;;32.47;;
37677;SDS011;23517;50.390;8.616;2023-12-07T14:35:00;67.65;;;33.30;;
37677;SDS011;23517;50.390;8.616;2023-12-07T14:37:27;64.38;;;32.10;;
37677;SDS011;23517;50.390;8.616;2023-12-07T14:39:54;51.30;;;26.60;;
37677;SDS011;23517;50.390;8.616;2023-12-07T14:42:21;55.55;;;27.95;;
37677;SDS011;23517;50.390;8.616;2023-12-07T14:44:48;52.00;;;23.33;;
37677;SDS011;23517;50.390;8.616;2023-12-07T14:47:15;51.72;;;24.77;;
37677;SDS011;23517;50.390;8.616;2023-12-07T14:49:42;64.85;;;29.58;;